Terminal Aerodrome Forecast
Issued by NWS

Home | Current Version | Previous Version | Text Only | Print | Product List | Glossary On
Versions: 1 2 3 4 5 6 7 8 9 10
000
FTUS45 KFGZ 012300
TAFPRC
TAF
KPRC 012320Z 0200/0224 28008KT P6SM SCT080
     FM020200 20006KT P6SM SKC
     FM021900 36010KT P6SM SKC=

USA.gov is the U.S. government's official web portal to all federal, state and local government web resources and services.